Weather observations for the past three days for
Iowa City Municipal Airport
Imperial (Metric)
Date Time (cdt) Wind (mph) Vis. (mi.) Weather Sky Cond. Temperature (ºF) Relative Humidity Wind Chill (°F) Heat Index (°F) Pressure Precipitation (in)
Air Dwpt 6 hour altimeter (in) sea level (mb) 1 hr 3 hr 6 hr
Max. Min.
03 08:52 N 9 10.00 Mostly Cloudy BKN120 81 72 74% 85 29.95 1013.6
03 07:52 Calm 10.00 A Few Clouds FEW120 77 72 85% 78 29.93 1012.8
03 06:52 SE 3 10.00 Fair CLR 73.9 71.1 79 73.9 91% 29.92 1012.5
03 05:52 SE 3 10.00 Fair CLR 73.9 71.1 91% 29.9 1011.8
03 04:52 SE 3 10.00 Fair CLR 75 71.1 88% 75 29.9 1011.9
03 03:52 Calm 10.00 Fair CLR 77 71.1 82% 79 29.9 1011.9
03 02:52 SE 3 10.00 Fair CLR 77 72 85% 78 29.9 1011.8
03 01:52 Calm 10.00 Fair CLR 79 72 79% 82 29.91 1012.0
03 00:52 S 5 10.00 Fair CLR 78.1 72 89.1 78.1 82% 80 29.91 1012.1
02 23:52 S 3 10.00 Fair CLR 79 73 82% 82 29.9 1011.9
02 22:52 S 6 10.00 Fair CLR 80.1 75 85% 85 29.9 1011.9
02 21:52 Calm 10.00 Fair CLR 82 75.9 82% 89 29.9 1011.9
02 20:52 S 3 10.00 Fair CLR 82.9 75.9 79% 91 29.89 1011.6
02 19:52 Calm 10.00 Fair CLR 86 77 75% 97 29.88 1011.2
02 18:52 S 7 10.00 Fair CLR 89.1 77 95 89.1 68% 102 29.88 1011.3
02 17:52 SW 8 10.00 Fair CLR 93.9 75 54% 106 29.89 1011.4
02 16:52 SW 7 10.00 Fair CLR 93.9 73 51% 103 29.9 1011.7
02 15:52 SW 9 10.00 Fair CLR 93.9 72 49% 102 29.91 1012.1
02 14:52 SW 9 10.00 Fair CLR 95 72 47% 103 29.92 1012.2
02 13:52 SW 9 10.00 Fair CLR 93.9 72 49% 102 29.92 1012.6
02 12:52 SW 12 10.00 Fair CLR 93 70 93 75 47% 99 29.94 1013.2
02 11:52 SW 8 10.00 Mostly Cloudy BKN110 91 72 54% 99 29.96 1013.8
02 10:52 S 7 10.00 NULL NULL 86 72 63% 92 29.96 1013.8
02 09:52 S 6 10.00 Mostly Cloudy BKN110 82.9 72 70% 88 29.96 1013.7
02 08:52 S 6 10.00 Fair CLR 79 71.1 77% 82 29.96 1013.9
02 07:52 S 5 10.00 Fair CLR 78.1 70 76% 80 29.97 1014.3
02 06:52 W 5 10.00 Mostly Cloudy BKN110 75.9 69.1 78.1 73 79% 77 29.97 1014.2
02 05:52 Calm 10.00 Fair CLR 75 68 79% 76 29.94 1013.0
02 04:52 S 3 10.00 Fair CLR 75 68 79% 76 29.94 1013.1
02 03:52 SW 5 10.00 A Few Clouds FEW110 77 68 74% 79 29.95 1013.5
02 02:52 Calm 10.00 Fair CLR 75 68 79% 76 29.94 1012.9
02 01:52 S 6 10.00 A Few Clouds FEW100 73 69.1 87% 29.93 1012.8
02 00:52 Calm 10.00 Fair CLR 75 69.1 89.1 75 82% 75 29.94 1013.1
01 23:52 S 6 10.00 NULL NULL 75.9 72 88% 76 29.94 1013.3
01 22:52 Calm 10.00 NULL NULL 75.9 73 91% 76 29.95 1013.4
01 21:52 Calm 10.00 Fair CLR 81 73.9 79% 86 29.93 1012.9
01 19:52 S 5 10.00 Fair CLR 82.9 75 77% 90 29.91 1012.4
01 18:52 S 7 10.00 Fair CLR 89.1 73.9 95 89.1 61% 98 29.92 1012.5
01 17:52 S 7 10.00 Fair CLR 93.9 72 49% 102 29.92 1012.5
01 16:52 S 9 10.00 Fair CLR 95 72 47% 103 29.92 1012.5
01 14:52 SW 9 10.00 Fair CLR 93.9 71.1 48% 101 29.94 1013.2
01 13:52 SW 8 10.00 Fair CLR 93 72 50% 101 29.95 1013.6
01 12:52 SW 9 10.00 Fair CLR 91 73 91 73 56% 100 29.97 1013.9
01 11:52 S 8 10.00 Fair CLR 90 72 56% 97 29.97 1014.2
01 10:52 S 12 10.00 Fair CLR 87.1 75.9 70% 98 29.98 1014.5
01 09:52 S 5 10.00 Fair CLR 78.1 75.9 93% 81 29.98 1014.5
01 08:52 Calm 8.00 Fair CLR 75.9 75 97% 75 29.98 1014.7
01 07:52 Calm 6.00 Fog/Mist CLR 73.9 73.9 100% 29.99 1015.0
01 06:52 Calm 5.00 Fog/Mist FEW120 73.9 73 79 73 97% 29.97 1014.4
01 04:52 S 3 7.00 Fair CLR 73.9 73 97% 29.95 1013.7
01 03:52 Calm 9.00 Fair CLR 75 73.9 96% 73 29.95 1013.5
01 02:52 Calm 10.00 Fair CLR 77 75 94% 78 29.95 1013.5
01 01:52 Calm 10.00 A Few Clouds FEW080 79 75 88% 83 29.95 1013.4
01 00:52 Calm 10.00 A Few Clouds FEW050 78.1 75.9 88 77 93% 81 29.96 1013.8
31 23:52 Calm 10.00 Fair CLR 77 75 94% 78 29.94 1013.2
31 22:52 Calm 9.00 Fair CLR 79 77 94% 83 29.93 1013.0
31 21:52 Calm 10.00 Fair CLR 81 75.9 85% 87 29.94 1013.0
31 20:52 S 3 10.00 Fair CLR 80.1 75 85% 85 29.93 1012.7
31 19:52 Calm 10.00 Fair CLR 84 75.9 77% 93 29.91 1012.1
31 18:52 S 6 10.00 Fair CLR 88 75 91.9 88 66% 98 29.91 1012.1
31 17:52 S 7 10.00 Fair CLR 90 75 62% 100 29.9 1011.9
31 16:52 SW 8 10.00 Fair CLR 90 73.9 59% 99 29.9 1011.9
31 15:52 SW 10 10.00 Fair CLR 91 73.9 57% 101 29.9 1011.8
31 14:52 SW 7 10.00 Fair CLR 91 72 54% 99 29.91 1012.0
31 13:52 S 7 10.00 Fair CLR 90 72 56% 97 29.91 1012.0
31 12:52 W 6 10.00 Fair CLR 90 70 90 75 52% 95 29.91 1012.1
31 11:52 SW 10 10.00 Fair CLR 87.1 69.1 55% 91 29.92 1012.3
31 10:52 SW 13 10.00 Fair CLR 84.9 69.1 59% 89 29.91 1012.3
31 09:52 SW 10 G 21 10.00 Fair CLR 82.9 68 61% 86 29.9 1011.9
Date Time (cdt) Wind (mph) Vis. (mi.) Weather Sky Cond. Air Dwpt Max. Min. Relative Humidity Wind Chill (°F) Heat Index (°F) altimeter (in) sea level (mb) 1 hr 3 hr 6 hr
6 hour
Temperature (ºF) Pressure Precipitation (in)